Time;durP1;ratioP1;P1;durP2;ratioP2;P2;SDS_P1;SDS_P2;PMS_P1;PMS_P2;Temp;Humidity;BMP_temperature;BMP_pressure;BME280_temperature;BME280_humidity;BME280_pressure;Samples;Min_cycle;Max_cycle;Signal;HPM_P1;HPM_P2
2022/08/29 00:02:17;;;;;;;6.75;3.47;;;;;;;22.21;47.99;102270.97;5104305;28;20028;-67
2022/08/29 00:04:42;;;;;;;9.68;3.13;;;;;;;22.42;47.71;102269.13;5092033;28;20052;-66
2022/08/29 00:07:08;;;;;;;14.15;3.30;;;;;;;22.22;47.84;102260.84;5092384;28;20036;-67
2022/08/29 00:09:33;;;;;;;3.92;2.97;;;;;;;22.26;47.50;102265.53;5091798;28;20036;-68
2022/08/29 00:11:58;;;;;;;6.10;3.20;;;;;;;22.01;48.79;102270.91;5073869;28;20036;-68
2022/08/29 00:14:24;;;;;;;8.10;3.42;;;;;;;22.05;48.12;102272.00;5091841;28;20097;-67
2022/08/29 00:16:49;;;;;;;16.23;3.17;;;;;;;22.14;48.56;102264.09;5091351;28;20047;-66
2022/08/29 00:19:15;;;;;;;18.83;3.38;;;;;;;21.88;49.19;102260.41;5092272;28;20473;-68
2022/08/29 00:21:40;;;;;;;11.48;4.07;;;;;;;22.00;48.86;102257.44;5091612;28;20419;-67
2022/08/29 00:24:06;;;;;;;8.38;3.50;;;;;;;22.24;48.10;102259.50;5067510;28;20032;-67
2022/08/29 00:26:31;;;;;;;8.35;3.80;;;;;;;22.26;47.50;102251.00;5071695;28;20036;-67
2022/08/29 00:28:57;;;;;;;11.38;3.53;;;;;;;22.43;47.64;102251.59;5071626;28;20404;-68
2022/08/29 00:31:22;;;;;;;9.43;3.28;;;;;;;22.43;47.29;102254.31;5071815;28;20031;-66
2022/08/29 00:33:50;;;;;;;6.15;3.63;;;;;;;22.09;48.16;102248.47;5071726;28;20033;-67
2022/08/29 00:36:15;;;;;;;8.32;3.70;;;;;;;22.01;48.09;102254.47;5071477;28;20032;-68
2022/08/29 00:38:40;;;;;;;8.60;3.35;;;;;;;22.13;48.06;102254.25;5071430;28;20041;-67
2022/08/29 00:41:06;;;;;;;7.57;3.17;;;;;;;21.94;48.74;102255.78;5071588;28;20029;-68
2022/08/29 00:43:35;;;;;;;8.07;3.67;;;;;;;22.27;48.12;102258.13;5071316;28;20033;-67
2022/08/29 00:46:20;;;;;;;5.63;3.60;;;;;;;22.27;47.38;102258.13;5071601;28;20025;-68
2022/08/29 00:48:52;;;;;;;10.38;3.67;;;;;;;22.49;47.13;102259.56;5071570;28;20065;-66
2022/08/29 00:51:19;;;;;;;7.28;3.10;;;;;;;22.35;47.32;102263.06;5071895;28;20373;-67
2022/08/29 00:53:49;;;;;;;10.60;3.85;;;;;;;22.37;47.29;102260.88;5075342;28;20493;-68
2022/08/29 00:56:16;;;;;;;6.20;2.90;;;;;;;22.23;48.17;102260.56;5075406;28;20033;-68
2022/08/29 00:58:58;;;;;;;8.05;3.63;;;;;;;22.27;48.11;102269.09;5084670;28;20402;-66
2022/08/29 01:01:24;;;;;;;9.80;4.43;;;;;;;22.39;47.79;102254.06;5095936;28;20468;-67
2022/08/29 01:03:50;;;;;;;7.38;3.55;;;;;;;22.29;47.77;102259.50;5095611;28;20039;-67
2022/08/29 01:06:16;;;;;;;9.52;3.80;;;;;;;22.49;47.02;102256.00;5095508;28;20032;-66
2022/08/29 01:08:42;;;;;;;9.00;3.75;;;;;;;22.60;47.15;102253.03;5090779;28;20070;-67
2022/08/29 01:13:55;;;;;;;4.90;3.58;;;;;;;22.45;47.44;102255.72;5075103;28;20385;-65
2022/08/29 01:16:22;;;;;;;9.63;3.83;;;;;;;22.42;47.63;102260.91;5077498;28;20062;-68
2022/08/29 01:18:52;;;;;;;8.68;3.35;;;;;;;22.48;47.86;102257.94;5074997;28;20381;-68
2022/08/29 01:21:28;;;;;;;10.88;4.05;;;;;;;22.50;47.18;102260.41;5088206;28;20035;-66
2022/08/29 01:24:31;;;;;;;7.82;3.53;;;;;;;22.62;46.76;102258.28;5095000;28;20089;-67
2022/08/29 01:26:56;;;;;;;8.95;3.78;;;;;;;22.70;46.87;102252.25;5095021;28;20036;-67
2022/08/29 01:29:22;;;;;;;6.05;3.92;;;;;;;22.52;47.33;102269.16;5094962;28;20132;-66
2022/08/29 01:31:49;;;;;;;9.43;4.05;;;;;;;22.63;47.04;102271.69;5094936;28;20035;-68
2022/08/29 01:34:16;;;;;;;7.18;3.78;;;;;;;22.70;47.18;102264.03;5077343;28;20028;-70
2022/08/29 01:36:50;;;;;;;11.20;4.20;;;;;;;22.67;46.85;102255.53;5094879;28;20048;-68
2022/08/29 01:39:17;;;;;;;13.88;4.35;;;;;;;22.65;47.29;102268.69;5094481;28;20063;-67
2022/08/29 01:41:43;;;;;;;9.35;4.35;;;;;;;22.53;47.80;102268.91;5094610;28;20217;-66
2022/08/29 01:44:12;;;;;;;13.52;3.50;;;;;;;22.73;47.20;102251.69;5094854;28;20534;-65
2022/08/29 01:46:39;;;;;;;6.78;3.72;;;;;;;22.57;47.82;102252.75;5094703;28;20455;-67
2022/08/29 01:49:07;;;;;;;8.75;3.90;;;;;;;22.66;47.73;102251.16;5095041;28;20047;-67
2022/08/29 01:51:33;;;;;;;9.82;4.53;;;;;;;22.69;47.65;102253.34;5094449;28;20036;-68
2022/08/29 01:53:59;;;;;;;9.77;5.47;;;;;;;22.80;47.17;102251.44;5094286;28;20465;-69
2022/08/29 01:56:29;;;;;;;7.05;4.43;;;;;;;22.76;47.12;102253.88;5076566;28;20036;-66
2022/08/29 01:58:56;;;;;;;8.10;4.22;;;;;;;22.73;46.88;102254.44;5094343;28;20115;-68
2022/08/29 02:01:24;;;;;;;11.32;5.18;;;;;;;22.85;46.66;102262.41;5094688;28;20028;-68
2022/08/29 02:03:50;;;;;;;8.02;3.78;;;;;;;22.54;47.94;102261.50;5094149;28;20040;-68
2022/08/29 02:06:15;;;;;;;8.88;4.40;;;;;;;22.70;46.86;102264.03;5094488;28;20042;-67
2022/08/29 02:08:43;;;;;;;9.38;4.25;;;;;;;22.74;46.84;102256.09;5090009;28;20149;-67
2022/08/29 02:11:10;;;;;;;8.00;3.85;;;;;;;22.83;46.78;102257.19;5073886;28;20042;-67
2022/08/29 02:13:38;;;;;;;8.95;5.20;;;;;;;22.88;46.64;102256.38;5087725;28;20036;-66
2022/08/29 02:16:03;;;;;;;9.63;5.32;;;;;;;22.60;46.53;102255.78;5093741;28;20051;-68
2022/08/29 02:18:30;;;;;;;9.48;4.82;;;;;;;22.69;46.45;102262.38;5094102;28;20035;-67
2022/08/29 02:20:55;;;;;;;8.32;5.10;;;;;;;22.83;46.64;102251.72;5093914;28;20040;-66
2022/08/29 02:23:21;;;;;;;13.55;5.38;;;;;;;22.92;46.07;102258.28;5093747;28;20036;-68
2022/08/29 02:25:48;;;;;;;7.93;4.65;;;;;;;22.75;46.76;102251.41;5094055;28;20032;-68
2022/08/29 02:28:16;;;;;;;11.07;5.50;;;;;;;22.95;45.99;102259.69;5094204;28;20020;-67
2022/08/29 02:30:46;;;;;;;10.00;5.00;;;;;;;22.98;45.89;102268.16;5075608;28;20472;-68
2022/08/29 02:33:14;;;;;;;7.68;4.60;;;;;;;22.78;46.08;102265.41;5093715;28;20560;-66
2022/08/29 02:35:40;;;;;;;15.90;4.30;;;;;;;22.85;46.05;102256.91;5093795;28;20101;-68
2022/08/29 02:38:06;;;;;;;12.32;4.95;;;;;;;22.94;45.73;102260.78;5093593;28;20085;-66
2022/08/29 02:40:33;;;;;;;7.57;4.32;;;;;;;22.86;45.92;102269.53;5093495;28;20028;-66
2022/08/29 02:42:59;;;;;;;14.45;4.30;;;;;;;22.97;45.94;102268.44;5094075;28;20032;-66
2022/08/29 02:45:26;;;;;;;12.73;5.00;;;;;;;23.03;45.85;102264.63;5093696;28;20085;-68
2022/08/29 02:47:51;;;;;;;10.20;4.85;;;;;;;22.92;45.92;102263.78;5093122;28;20066;-68
2022/08/29 02:50:17;;;;;;;10.43;4.13;;;;;;;22.96;45.87;102270.38;5091647;28;20438;-66
2022/08/29 02:52:43;;;;;;;6.43;4.68;;;;;;;23.04;46.36;102272.56;5073121;28;20349;-66
2022/08/29 02:55:14;;;;;;;7.38;4.57;;;;;;;23.10;46.03;102267.91;5073413;28;20062;-67
2022/08/29 02:57:39;;;;;;;;;;;;;;;23.00;45.70;102271.47;5073540;28;20484;-68
2022/08/29 03:00:08;;;;;;;7.38;4.72;;;;;;;22.88;46.66;102276.38;5072732;28;19965;-66
2022/08/29 03:02:34;;;;;;;7.70;4.38;;;;;;;23.00;46.35;102271.47;5072835;28;20028;-67
2022/08/29 03:05:00;;;;;;;10.68;4.63;;;;;;;23.14;45.66;102278.06;5072855;28;20396;-68
2022/08/29 03:07:25;;;;;;;9.43;4.70;;;;;;;23.12;45.45;102266.53;5073335;28;20028;-67
2022/08/29 03:09:51;;;;;;;6.85;4.38;;;;;;;23.15;45.91;102267.91;5086679;28;20044;-67
2022/08/29 03:12:17;;;;;;;8.50;4.50;;;;;;;23.09;45.68;102267.09;5092829;28;20118;-66
2022/08/29 03:14:42;;;;;;;7.32;4.00;;;;;;;22.95;45.25;102266.00;5092312;28;20036;-67
2022/08/29 03:17:08;;;;;;;15.15;4.03;;;;;;;22.85;46.01;102262.41;5077611;28;20037;-66
2022/08/29 03:19:33;;;;;;;8.80;5.05;;;;;;;23.02;45.55;102255.56;5072526;28;20641;-66
2022/08/29 03:21:59;;;;;;;10.20;4.18;;;;;;;23.13;45.22;102256.41;5073011;28;20039;-66
2022/08/29 03:24:24;;;;;;;9.98;4.50;;;;;;;23.14;45.55;102250.63;5072576;28;20044;-67
2022/08/29 03:26:50;;;;;;;13.82;5.72;;;;;;;23.17;44.86;102247.34;5072503;28;20388;-66
2022/08/29 03:29:15;;;;;;;7.38;4.47;;;;;;;23.12;45.31;102252.81;5072235;28;20037;-67
2022/08/29 03:31:42;;;;;;;9.38;5.15;;;;;;;23.06;45.66;102253.91;5072244;28;20032;-68
2022/08/29 03:34:07;;;;;;;9.60;4.13;;;;;;;23.16;45.07;102258.56;5072731;28;20047;-65
2022/08/29 03:36:33;;;;;;;11.55;6.43;;;;;;;23.08;44.71;102248.97;5072418;28;20029;-67
2022/08/29 03:38:58;;;;;;;12.02;4.45;;;;;;;23.03;45.51;102249.00;5072187;28;20051;-69
2022/08/29 03:41:27;;;;;;;8.73;4.70;;;;;;;23.17;45.29;102249.25;5054267;28;20377;-66
2022/08/29 03:43:54;;;;;;;7.28;4.18;;;;;;;23.16;44.80;102247.59;5072215;28;20060;-66
2022/08/29 03:46:20;;;;;;;12.43;4.50;;;;;;;23.21;44.86;102248.41;5072991;28;20101;-66
2022/08/29 03:48:47;;;;;;;12.32;4.95;;;;;;;23.05;45.35;102241.31;5092055;28;20028;-68
2022/08/29 03:51:12;;;;;;;8.68;4.25;;;;;;;23.17;45.20;102239.13;5092144;28;20040;-67
2022/08/29 03:53:39;;;;;;;15.18;5.10;;;;;;;23.21;44.57;102237.44;5092442;28;20043;-67
2022/08/29 03:56:05;;;;;;;9.48;4.68;;;;;;;23.19;44.70;102242.38;5092439;28;20492;-66
2022/08/29 03:58:31;;;;;;;10.07;4.72;;;;;;;23.10;45.44;102237.72;5092499;28;20031;-68
2022/08/29 04:00:57;;;;;;;11.68;4.47;;;;;;;23.17;45.11;102238.28;5091422;28;20513;-67
2022/08/29 04:03:23;;;;;;;10.20;4.47;;;;;;;23.21;45.15;102234.72;5090890;28;20067;-67
2022/08/29 04:05:48;;;;;;;9.60;4.85;;;;;;;23.22;45.08;102235.53;5091522;28;20059;-65
2022/08/29 04:08:14;;;;;;;10.48;3.92;;;;;;;23.09;45.32;102231.44;5091612;28;20046;-67
2022/08/29 04:10:39;;;;;;;10.15;4.32;;;;;;;23.15;45.01;102224.03;5091417;28;20112;-68
2022/08/29 04:13:07;;;;;;;11.95;4.15;;;;;;;23.12;45.53;102228.13;5092344;28;20028;-68
2022/08/29 04:15:33;;;;;;;7.80;4.60;;;;;;;23.07;45.69;102232.81;5091602;28;20101;-71
2022/08/29 04:18:01;;;;;;;8.68;4.68;;;;;;;23.20;45.18;102227.59;5091550;28;20141;-67
2022/08/29 04:20:31;;;;;;;11.10;4.10;;;;;;;22.98;45.94;102227.03;5092070;28;20028;-68
2022/08/29 04:22:58;;;;;;;11.27;4.20;;;;;;;23.09;45.48;102227.88;5092159;28;20036;-66
2022/08/29 04:25:25;;;;;;;7.28;4.13;;;;;;;23.16;45.84;102233.88;5092804;28;20472;-68
2022/08/29 04:27:52;;;;;;;9.55;4.30;;;;;;;23.17;45.57;102230.91;5095591;28;20055;-65
2022/08/29 04:30:20;;;;;;;8.73;3.58;;;;;;;23.18;45.81;102223.47;5096053;28;20040;-66
2022/08/29 04:32:46;;;;;;;7.22;4.28;;;;;;;23.03;45.94;102231.72;5095739;28;20089;-67
2022/08/29 04:35:13;;;;;;;11.15;4.20;;;;;;;23.16;46.05;102228.41;5096163;28;20032;-66
2022/08/29 04:37:40;;;;;;;10.35;4.30;;;;;;;23.24;45.34;102233.34;5095687;28;20085;-68
2022/08/29 04:40:07;;;;;;;9.63;3.50;;;;;;;23.29;45.05;102242.38;5096400;28;20024;-68
2022/08/29 04:42:36;;;;;;;7.65;3.53;;;;;;;23.20;45.20;102238.56;5092555;28;20485;-67
2022/08/29 04:45:02;;;;;;;6.90;3.55;;;;;;;23.22;44.68;102244.59;5092227;28;20361;-67
2022/08/29 04:47:27;;;;;;;12.63;4.38;;;;;;;23.20;44.67;102252.28;5089450;28;20037;-68
2022/08/29 04:49:54;;;;;;;6.75;3.67;;;;;;;23.23;44.76;102248.16;5086149;28;20036;-66
2022/08/29 04:52:20;;;;;;;11.75;4.68;;;;;;;23.26;44.80;102245.69;5083494;28;20032;-67
2022/08/29 04:54:46;;;;;;;6.35;3.55;;;;;;;23.26;45.13;102239.38;5087180;28;20043;-68
2022/08/29 04:57:11;;;;;;;9.07;3.60;;;;;;;23.26;44.67;102251.19;5068199;28;20051;-68
2022/08/29 04:59:36;;;;;;;9.68;3.47;;;;;;;23.25;44.90;102256.94;5067108;28;20040;-68
2022/08/29 05:02:02;;;;;;;15.10;4.45;;;;;;;23.19;44.95;102256.09;5087703;28;20498;-67
2022/08/29 05:04:27;;;;;;;7.80;4.45;;;;;;;23.22;44.86;102250.09;5073325;28;20047;-69
2022/08/29 05:06:53;;;;;;;10.02;4.15;;;;;;;23.23;45.01;102254.47;5089834;28;20093;-69
2022/08/29 05:09:18;;;;;;;11.73;4.78;;;;;;;23.31;44.86;102262.16;5085251;28;20101;-69
2022/08/29 05:11:44;;;;;;;7.15;4.03;;;;;;;23.38;45.03;102262.72;5095045;28;20044;-68
2022/08/29 05:14:09;;;;;;;11.82;4.50;;;;;;;23.42;45.12;102268.47;5084480;28;20453;-69
2022/08/29 05:16:36;;;;;;;10.32;3.53;;;;;;;23.42;44.81;102265.72;5084931;28;20051;-68
2022/08/29 05:19:04;;;;;;;7.70;3.22;;;;;;;23.45;45.03;102266.00;5095198;28;20020;-68
2022/08/29 05:21:34;;;;;;;5.57;3.78;;;;;;;23.54;44.86;102263.53;5094925;28;20734;-73
2022/08/29 05:24:00;;;;;;;10.75;2.95;;;;;;;23.47;44.82;102273.94;5094879;28;20037;-71
2022/08/29 05:26:30;;;;;;;9.93;4.10;;;;;;;23.49;44.92;102266.25;5095259;28;20128;-73
2022/08/29 05:28:56;;;;;;;;;;;;;;;23.51;45.10;102273.13;5095414;28;20483;-72
2022/08/29 05:31:22;;;;;;;8.85;3.22;;;;;;;23.61;44.61;102271.44;5090157;28;19962;-71
2022/08/29 05:33:47;;;;;;;11.88;3.35;;;;;;;23.22;45.11;102271.19;5074644;28;20037;-70
2022/08/29 05:36:13;;;;;;;7.30;4.22;;;;;;;23.39;44.99;102278.06;5074233;28;20033;-72
2022/08/29 05:38:38;;;;;;;8.35;3.47;;;;;;;23.47;44.84;102277.53;5088356;28;20039;-72
2022/08/29 05:41:04;;;;;;;6.70;3.30;;;;;;;23.57;44.59;102284.91;5093755;28;20024;-71
2022/08/29 05:43:31;;;;;;;6.35;2.78;;;;;;;23.68;44.40;102289.31;5093385;28;20040;-71
2022/08/29 05:46:02;;;;;;;8.65;4.00;;;;;;;23.62;44.36;102284.09;5094181;28;20035;-70
2022/08/29 05:48:28;;;;;;;14.77;3.42;;;;;;;23.74;43.94;102288.19;5091149;28;20047;-73
2022/08/29 05:50:54;;;;;;;10.13;4.55;;;;;;;23.79;43.48;102279.94;5087298;28;20086;-71
2022/08/29 05:53:19;;;;;;;11.43;3.40;;;;;;;23.88;43.42;102285.69;5059854;28;20041;-71
2022/08/29 05:55:44;;;;;;;8.93;3.67;;;;;;;23.93;43.74;102288.41;5073386;28;20028;-69
2022/08/29 05:58:11;;;;;;;14.10;3.90;;;;;;;23.89;43.39;102281.81;5081625;28;20043;-71
2022/08/29 06:00:39;;;;;;;8.07;3.30;;;;;;;23.89;43.42;102279.91;5085235;28;20025;-71
2022/08/29 06:03:04;;;;;;;8.25;3.67;;;;;;;23.96;43.71;102287.88;5089920;28;20029;-71
2022/08/29 06:05:29;;;;;;;9.63;3.40;;;;;;;23.84;43.49;102292.84;5090321;28;20125;-69
2022/08/29 06:07:55;;;;;;;6.95;2.95;;;;;;;23.87;43.86;102295.84;5084462;28;20029;-70
2022/08/29 06:10:20;;;;;;;7.50;3.47;;;;;;;23.84;43.33;102296.38;5082827;28;20419;-71
2022/08/29 06:12:45;;;;;;;7.80;3.40;;;;;;;23.93;43.14;102299.41;5082264;28;20033;-72
2022/08/29 06:15:11;;;;;;;7.00;3.40;;;;;;;24.00;43.32;102297.19;5082144;28;20036;-72
2022/08/29 06:17:37;;;;;;;6.00;2.63;;;;;;;24.04;43.33;102292.78;5083888;28;20097;-72
2022/08/29 06:20:07;;;;;;;15.98;3.80;;;;;;;23.88;43.46;102294.72;5065547;28;20064;-74
2022/08/29 06:22:34;;;;;;;7.72;2.75;;;;;;;24.07;43.42;102297.75;5084537;28;20024;-72
2022/08/29 06:24:59;;;;;;;8.10;3.20;;;;;;;24.05;43.31;102298.03;5085010;28;20028;-72
2022/08/29 06:27:25;;;;;;;20.25;4.93;;;;;;;24.18;43.16;102291.94;5082659;28;20035;-72
2022/08/29 06:29:50;;;;;;;6.22;2.95;;;;;;;24.03;43.25;102288.41;5082591;28;20036;-72
2022/08/29 06:32:16;;;;;;;7.20;3.10;;;;;;;24.04;43.57;102295.53;5083965;28;20032;-72
2022/08/29 06:34:41;;;;;;;10.75;3.17;;;;;;;24.27;42.89;102289.44;5085981;28;20036;-72
2022/08/29 06:37:07;;;;;;;7.40;3.22;;;;;;;24.28;42.98;102297.38;5067937;28;20514;-71
2022/08/29 06:39:32;;;;;;;10.07;3.45;;;;;;;24.22;42.54;102289.44;5082097;28;20040;-72
2022/08/29 06:41:57;;;;;;;7.30;3.58;;;;;;;24.28;42.77;102299.31;5065737;28;20484;-72
2022/08/29 06:44:23;;;;;;;7.28;3.33;;;;;;;24.37;42.47;102294.88;5081795;28;20040;-72
2022/08/29 06:46:50;;;;;;;17.70;4.47;;;;;;;24.27;42.71;102294.94;5083073;28;20028;-72
2022/08/29 06:49:20;;;;;;;14.48;3.85;;;;;;;24.07;43.30;102300.50;5064904;28;20029;-71
2022/08/29 06:51:51;;;;;;;;;;;;;;;24.17;43.68;102300.47;5083001;28;20036;-72
2022/08/29 06:54:18;;;;;;;8.73;2.45;;;;;;;23.89;43.59;102296.38;5086414;28;19916;-73
2022/08/29 06:56:44;;;;;;;10.63;2.67;;;;;;;23.39;45.84;102300.03;5084280;28;20051;-72
2022/08/29 06:59:10;;;;;;;6.47;2.58;;;;;;;24.07;43.94;102298.56;5085777;28;20115;-73
2022/08/29 07:01:35;;;;;;;9.95;2.95;;;;;;;24.39;43.40;102301.72;5081729;28;20042;-71
2022/08/29 07:04:02;;;;;;;7.30;2.63;;;;;;;24.18;44.29;102297.41;5084274;28;20095;-72
2022/08/29 07:06:27;;;;;;;11.98;2.55;;;;;;;24.56;43.50;102295.88;5082373;28;20388;-71
2022/08/29 07:08:53;;;;;;;8.88;3.00;;;;;;;24.77;43.07;102299.34;5081961;28;20041;-73
2022/08/29 07:11:18;;;;;;;13.70;2.90;;;;;;;24.76;42.88;102301.31;5083264;28;20051;-73
2022/08/29 07:13:45;;;;;;;7.65;2.50;;;;;;;24.29;43.86;102299.00;5081603;28;20070;-72
2022/08/29 07:16:15;;;;;;;7.07;2.78;;;;;;;24.74;43.50;102305.44;5086336;28;20047;-72
2022/08/29 07:18:41;;;;;;;12.85;2.97;;;;;;;24.52;44.13;102303.03;5080470;28;20102;-72
2022/08/29 07:21:09;;;;;;;8.65;3.13;;;;;;;24.80;43.44;102298.78;5082050;28;20119;-72
2022/08/29 07:23:34;;;;;;;12.38;3.35;;;;;;;25.05;43.13;102307.69;5083428;28;20066;-71
2022/08/29 07:26:12;;;;;;;16.83;3.28;;;;;;;24.17;45.07;102309.53;5083134;28;20040;-72
2022/08/29 07:28:37;;;;;;;14.32;3.08;;;;;;;25.00;43.13;102310.47;5083510;28;20024;-72
2022/08/29 07:31:04;;;;;;;17.65;3.80;;;;;;;24.79;43.47;102311.72;5083396;28;20525;-71
2022/08/29 07:33:30;;;;;;;10.18;3.22;;;;;;;24.93;43.90;102307.22;5084422;28;20043;-70
2022/08/29 07:35:56;;;;;;;9.25;3.70;;;;;;;25.04;43.71;102324.50;5081370;28;20476;-72
2022/08/29 07:38:21;;;;;;;10.02;3.10;;;;;;;25.10;43.67;102315.09;5083131;28;20040;-73
2022/08/29 07:40:47;;;;;;;10.38;3.00;;;;;;;25.24;43.89;102318.81;5081685;28;20039;-72
2022/08/29 07:43:12;;;;;;;8.43;3.00;;;;;;;24.88;44.33;102320.19;5084133;28;20028;-72
2022/08/29 07:45:38;;;;;;;14.93;3.83;;;;;;;25.67;42.95;102317.13;5080919;28;20044;-74
2022/08/29 07:48:04;;;;;;;13.52;4.63;;;;;;;25.62;42.87;102322.66;5083594;28;20032;-73
2022/08/29 07:50:29;;;;;;;16.05;3.78;;;;;;;25.87;42.50;102325.97;5083551;28;20284;-74
2022/08/29 07:52:55;;;;;;;18.50;4.78;;;;;;;25.97;42.25;102328.63;5081341;28;20031;-72
2022/08/29 07:55:20;;;;;;;8.93;3.70;;;;;;;25.82;42.66;102333.47;5084323;28;20116;-71
2022/08/29 07:57:47;;;;;;;7.88;3.50;;;;;;;25.84;42.64;102323.81;5080195;28;20036;-73
2022/08/29 08:00:13;;;;;;;15.27;3.80;;;;;;;25.35;43.60;102323.16;5082079;28;20056;-73
2022/08/29 08:02:38;;;;;;;8.27;4.05;;;;;;;25.73;42.57;102324.22;5082981;28;20577;-72
2022/08/29 08:05:04;;;;;;;11.25;3.92;;;;;;;25.17;43.52;102323.84;5083656;28;20032;-72
2022/08/29 08:07:31;;;;;;;11.82;3.85;;;;;;;25.64;43.09;102329.53;5081574;28;20019;-72
2022/08/29 08:09:57;;;;;;;7.30;3.97;;;;;;;24.76;45.06;102328.78;5081447;28;20032;-72
2022/08/29 08:12:25;;;;;;;11.68;3.63;;;;;;;25.95;42.54;102319.84;5082225;28;20026;-73
2022/08/29 08:14:50;;;;;;;11.93;3.90;;;;;;;25.20;43.81;102328.75;5063049;28;20386;-72
2022/08/29 08:17:16;;;;;;;11.70;3.50;;;;;;;25.47;43.55;102329.13;5088143;28;20036;-72
2022/08/29 08:19:41;;;;;;;7.03;3.00;;;;;;;26.01;42.36;102332.44;5076214;28;20043;-72
2022/08/29 08:22:07;;;;;;;8.88;4.60;;;;;;;25.89;42.11;102343.03;5077195;28;20023;-73
2022/08/29 08:24:32;;;;;;;28.10;5.10;;;;;;;26.34;41.16;102330.69;5087381;28;20058;-73
2022/08/29 08:26:58;;;;;;;15.63;5.20;;;;;;;25.82;42.57;102341.75;5080783;28;20549;-73
2022/08/29 08:29:23;;;;;;;12.40;3.08;;;;;;;26.30;41.78;102342.63;5089186;28;20040;-74
2022/08/29 08:31:49;;;;;;;7.93;3.13;;;;;;;25.64;43.02;102336.97;5091844;28;20051;-71
2022/08/29 08:34:16;;;;;;;17.15;3.28;;;;;;;26.25;42.04;102339.91;5092591;28;20130;-73
2022/08/29 08:36:43;;;;;;;12.48;3.25;;;;;;;26.27;41.78;102332.19;5083571;28;20044;-73
2022/08/29 08:39:10;;;;;;;16.80;3.17;;;;;;;26.83;40.31;102324.81;5079282;28;20039;-74
2022/08/29 08:41:35;;;;;;;14.93;3.30;;;;;;;26.71;41.25;102328.03;5091906;28;20040;-73
2022/08/29 08:44:30;;;;;;;12.45;2.05;;;;;;;26.65;41.29;102331.94;5091559;28;20119;-73
2022/08/29 08:47:00;;;;;;;5.90;1.60;;;;;;;27.05;39.21;102327.81;5073303;28;20032;-73
2022/08/29 08:49:43;;;;;;;7.72;1.88;;;;;;;27.47;38.56;102330.47;5091851;28;20036;-72
2022/08/29 08:52:19;;;;;;;6.80;1.98;;;;;;;27.37;38.00;102340.84;5092163;28;20068;-73
2022/08/29 08:54:54;;;;;;;12.07;2.40;;;;;;;26.94;38.91;102335.44;5091659;28;20040;-75
2022/08/29 08:57:20;;;;;;;10.35;2.03;;;;;;;27.52;38.32;102327.59;5091615;28;20127;-73
2022/08/29 08:59:54;;;;;;;12.52;2.38;;;;;;;27.34;39.04;102338.72;5091752;28;20392;-72
2022/08/29 09:03:01;;;;;;;7.03;1.50;;;;;;;27.33;38.63;102331.53;5091694;28;20395;-73
2022/08/29 09:05:48;;;;;;;12.98;2.33;;;;;;;27.75;37.88;102326.63;5007482;28;20168;-71
2022/08/29 09:08:13;;;;;;;8.50;1.95;;;;;;;27.88;37.11;102330.56;5008477;28;20099;-73
2022/08/29 09:10:52;;;;;;;16.05;2.08;;;;;;;27.15;38.59;102332.34;5008432;28;20120;-72
2022/08/29 09:13:48;;;;;;;4.70;1.30;;;;;;;26.95;39.25;102333.47;4993328;28;20034;-68
2022/08/29 09:16:41;;;;;;;5.75;2.05;;;;;;;27.66;38.02;102331.22;5009706;28;20454;-60
2022/08/29 09:19:11;;;;;;;7.30;1.92;;;;;;;27.80;37.66;102334.00;5001443;28;20473;-72
2022/08/29 09:21:45;;;;;;;4.82;1.65;;;;;;;27.83;37.15;102330.66;5011225;28;20072;-70
2022/08/29 09:24:27;;;;;;;10.07;2.17;;;;;;;27.73;37.41;102325.31;5008742;28;20113;-72
2022/08/29 09:26:55;;;;;;;4.53;1.60;;;;;;;27.87;36.80;102326.16;5010983;28;20034;-73
2022/08/29 09:29:28;;;;;;;11.52;1.95;;;;;;;27.54;36.94;102327.31;5011234;28;20756;-74
2022/08/29 09:32:12;;;;;;;5.95;2.05;;;;;;;26.45;39.00;102328.66;5011409;28;20034;-73
2022/08/29 09:34:41;;;;;;;7.55;2.33;;;;;;;27.46;37.27;102331.59;5009770;28;20045;-73
2022/08/29 09:37:33;;;;;;;8.50;2.13;;;;;;;27.87;37.27;102328.94;5011265;28;20038;-73
2022/08/29 09:40:02;;;;;;;4.88;1.98;;;;;;;27.98;37.08;102324.03;5018621;28;20053;-72
2022/08/29 09:42:31;;;;;;;6.63;1.77;;;;;;;27.98;36.98;102327.63;5062866;28;20044;-73
2022/08/29 09:45:03;;;;;;;8.50;3.35;;;;;;;28.04;36.79;102328.34;5082645;28;20040;-73
2022/08/29 09:47:31;;;;;;;10.68;1.83;;;;;;;28.01;36.49;102329.78;5086317;28;20135;-75
2022/08/29 09:50:06;;;;;;;3.63;1.73;;;;;;;27.60;36.79;102332.44;5081319;28;20062;-72
2022/08/29 09:52:32;;;;;;;6.68;1.45;;;;;;;27.79;37.26;102330.44;5086580;28;20036;-76
2022/08/29 09:55:17;;;;;;;8.15;2.10;;;;;;;27.89;36.56;102328.63;5077200;28;20362;-73
2022/08/29 09:57:49;;;;;;;12.00;2.10;;;;;;;28.19;36.64;102328.03;5080648;28;20029;-73
2022/08/29 10:00:22;;;;;;;3.97;1.30;;;;;;;28.09;36.94;102331.03;5076563;28;20063;-73
2022/08/29 10:02:53;;;;;;;10.45;1.85;;;;;;;27.78;37.32;102330.75;5077065;28;20035;-74
2022/08/29 10:05:33;;;;;;;;;;;;;;;27.97;36.56;102325.19;5078486;28;20029;-74
2022/08/29 10:07:59;;;;;;;;;;;;;;;27.94;36.44;102321.03;5083522;28;19913;-73
2022/08/29 10:10:29;;;;;;;6.55;2.08;;;;;;;27.93;36.44;102324.13;5084962;28;19916;-75
2022/08/29 10:13:11;;;;;;;6.70;1.90;;;;;;;27.96;37.10;102329.06;5082350;28;20043;-72
2022/08/29 10:16:01;;;;;;;8.40;1.70;;;;;;;27.52;37.22;102332.31;5081866;28;20073;-71
2022/08/29 10:18:48;;;;;;;4.82;1.52;;;;;;;28.04;35.83;102329.16;5083348;28;20123;-72
2022/08/29 10:21:45;;;;;;;8.45;1.92;;;;;;;27.75;36.65;102326.63;5083569;28;20115;-72
2022/08/29 10:24:32;;;;;;;5.10;1.50;;;;;;;27.91;36.16;102318.88;5070440;28;20368;-72
2022/08/29 10:27:22;;;;;;;4.03;1.45;;;;;;;28.07;36.16;102325.00;5082042;28;20032;-72
2022/08/29 10:30:11;;;;;;;5.97;1.77;;;;;;;28.16;36.59;102323.13;5084354;28;20040;-73
2022/08/29 10:32:59;;;;;;;7.65;2.65;;;;;;;28.49;35.90;102319.94;5088482;28;20109;-72
2022/08/29 10:35:36;;;;;;;6.80;1.40;;;;;;;28.25;35.89;102322.09;5088415;28;20042;-73
2022/08/29 10:38:14;;;;;;;6.28;1.77;;;;;;;28.78;35.29;102316.00;5087147;28;20028;-72
2022/08/29 10:40:47;;;;;;;6.10;1.30;;;;;;;28.76;34.72;102323.78;5075340;28;20028;-71
2022/08/29 10:43:47;;;;;;;2.60;1.17;;;;;;;28.99;34.60;102317.19;5081571;28;20476;-73
2022/08/29 10:46:12;;;;;;;5.80;2.35;;;;;;;29.23;34.21;102315.75;5088208;28;20131;-73
2022/08/29 10:48:41;;;;;;;8.60;1.35;;;;;;;29.67;33.17;102309.34;5084857;28;20135;-74
2022/08/29 10:51:21;;;;;;;4.32;1.42;;;;;;;29.87;33.13;102308.03;5082936;28;20369;-72
2022/08/29 10:53:54;;;;;;;5.95;1.92;;;;;;;29.98;32.77;102312.13;5064808;28;20033;-73
2022/08/29 10:56:26;;;;;;;7.25;1.85;;;;;;;29.96;33.34;102304.13;5080079;28;20046;-73
2022/08/29 10:59:18;;;;;;;4.40;1.48;;;;;;;30.00;32.58;102301.53;5082953;28;20088;-72
2022/08/29 11:01:56;;;;;;;6.38;1.60;;;;;;;30.16;32.57;102306.34;5081961;28;20028;-73
2022/08/29 11:04:28;;;;;;;7.20;1.65;;;;;;;30.06;32.34;102297.47;5078439;28;20115;-74
2022/08/29 11:07:06;;;;;;;7.72;1.50;;;;;;;30.07;32.59;102296.38;5083825;28;20036;-71
2022/08/29 11:09:41;;;;;;;5.97;1.65;;;;;;;29.78;32.66;102294.09;5085024;28;20412;-73
2022/08/29 11:12:10;;;;;;;7.07;1.58;;;;;;;29.16;33.81;102300.72;5084123;28;20065;-72
2022/08/29 11:14:51;;;;;;;8.60;1.48;;;;;;;29.26;33.24;102298.53;5084416;28;20377;-71
2022/08/29 11:17:21;;;;;;;8.60;1.83;;;;;;;29.36;33.65;102289.13;5084636;28;20036;-72
2022/08/29 11:20:01;;;;;;;5.05;2.03;;;;;;;28.37;34.71;102291.97;5082613;28;20040;-72
2022/08/29 11:22:43;;;;;;;6.85;1.98;;;;;;;28.98;33.85;102293.38;5082108;28;20098;-70
2022/08/29 11:25:13;;;;;;;4.68;1.90;;;;;;;29.18;33.66;102290.97;5082474;28;20611;-74
2022/08/29 11:28:03;;;;;;;8.75;1.70;;;;;;;29.28;33.06;102292.66;5083492;28;20105;-73
2022/08/29 11:30:45;;;;;;;6.70;1.77;;;;;;;29.33;33.45;102293.34;5084441;28;20066;-74
2022/08/29 11:33:20;;;;;;;6.03;1.80;;;;;;;29.70;32.75;102281.00;5086854;28;20085;-72
2022/08/29 11:36:24;;;;;;;4.75;1.30;;;;;;;29.58;33.18;102275.25;5086026;28;20522;-72
2022/08/29 11:39:11;;;;;;;6.10;1.60;;;;;;;29.12;33.10;102278.34;5085671;28;20119;-72